Time;durP1;ratioP1;P1;durP2;ratioP2;P2;SDS_P1;SDS_P2;PMS_P1;PMS_P2;Temp;Humidity;BMP_temperature;BMP_pressure;BME280_temperature;BME280_humidity;BME280_pressure;Samples;Min_cycle;Max_cycle;Signal;HPM_P1;HPM_P2
2021/08/22 00:00:12;;;;;;;0.00;0.00;;;24.80;57.60;;;;;;5075138;28;20591;-66
2021/08/22 00:02:40;;;;;;;0.00;0.00;;;24.80;57.90;;;;;;5069806;28;20214;-66
2021/08/22 00:05:07;;;;;;;0.00;0.00;;;24.70;58.30;;;;;;5068846;28;20298;-66
2021/08/22 00:07:35;;;;;;;0.00;0.00;;;24.70;58.50;;;;;;5073948;28;20220;-66
2021/08/22 00:10:03;;;;;;;0.53;0.53;;;24.70;58.50;;;;;;5068677;28;20305;-66
2021/08/22 00:12:30;;;;;;;0.10;0.10;;;24.70;58.50;;;;;;5069750;28;20243;-66
2021/08/22 00:14:57;;;;;;;0.00;0.00;;;24.70;58.60;;;;;;5066838;28;20668;-66
2021/08/22 00:17:25;;;;;;;0.50;0.50;;;24.60;58.80;;;;;;5069619;28;20236;-66
2021/08/22 00:19:52;;;;;;;0.00;0.00;;;24.60;58.90;;;;;;5072658;28;20257;-66
2021/08/22 00:22:20;;;;;;;0.00;0.00;;;24.60;58.70;;;;;;5073555;28;20209;-66
2021/08/22 00:24:47;;;;;;;0.00;0.00;;;24.60;58.70;;;;;;5070294;28;20659;-66
2021/08/22 00:27:15;;;;;;;0.00;0.00;;;24.60;58.70;;;;;;5070590;28;20241;-66
2021/08/22 00:29:43;;;;;;;0.00;0.00;;;24.60;58.70;;;;;;5070488;28;20220;-66
2021/08/22 00:32:11;;;;;;;0.00;0.00;;;24.60;58.70;;;;;;5067292;28;20776;-66
2021/08/22 00:34:38;;;;;;;0.20;0.20;;;24.60;58.70;;;;;;5067668;28;20256;-66
2021/08/22 00:37:06;;;;;;;0.00;0.00;;;24.60;58.80;;;;;;5070105;28;20222;-66
2021/08/22 00:39:33;;;;;;;0.00;0.00;;;24.60;58.80;;;;;;5071420;28;20263;-67
2021/08/22 00:42:01;;;;;;;0.10;0.10;;;24.60;58.90;;;;;;5068995;28;20214;-67
2021/08/22 00:44:28;;;;;;;0.00;0.00;;;24.50;58.90;;;;;;5068250;28;20218;-67
2021/08/22 00:46:56;;;;;;;0.00;0.00;;;24.50;59.10;;;;;;5070258;28;20676;-67
2021/08/22 00:49:24;;;;;;;0.03;0.03;;;24.50;59.30;;;;;;5068231;28;20738;-67
2021/08/22 00:51:51;;;;;;;0.10;0.10;;;24.50;59.60;;;;;;5064446;28;20246;-67
2021/08/22 00:54:18;;;;;;;0.00;0.00;;;24.50;59.80;;;;;;5069376;28;20321;-67
2021/08/22 00:56:45;;;;;;;0.00;0.00;;;24.40;60.00;;;;;;5068509;28;20211;-67
2021/08/22 00:59:15;;;;;;;0.00;0.00;;;24.40;60.30;;;;;;5067836;28;20249;-67
2021/08/22 01:01:48;;;;;;;0.43;0.43;;;24.40;60.50;;;;;;5068934;28;20221;-67
2021/08/22 01:05:01;;;;;;;1.07;0.63;;;24.30;60.70;;;;;;5067664;28;20210;-67
2021/08/22 01:07:35;;;;;;;0.00;0.00;;;24.30;60.80;;;;;;5038912;28;20210;-67
2021/08/22 01:10:07;;;;;;;0.00;0.00;;;24.30;60.90;;;;;;5066551;28;20593;-67
2021/08/22 01:12:40;;;;;;;0.00;0.00;;;24.30;60.90;;;;;;5066897;28;20244;-67
2021/08/22 01:15:11;;;;;;;0.10;0.10;;;24.20;60.80;;;;;;5067164;28;20614;-67
2021/08/22 01:17:47;;;;;;;0.03;0.03;;;24.20;60.80;;;;;;5067426;28;20459;-67
2021/08/22 01:20:41;;;;;;;0.00;0.00;;;24.20;60.80;;;;;;5066641;28;20216;-67
2021/08/22 01:23:09;;;;;;;0.53;0.53;;;24.20;60.70;;;;;;5068725;28;20220;-67
2021/08/22 01:25:38;;;;;;;0.00;0.00;;;24.20;60.90;;;;;;5073984;28;20257;-67
2021/08/22 01:28:07;;;;;;;0.13;0.13;;;24.10;60.10;;;;;;5074831;28;20217;-67
2021/08/22 01:30:46;;;;;;;0.20;0.20;;;24.00;60.00;;;;;;5068898;28;20599;-67
2021/08/22 01:33:16;;;;;;;0.43;0.43;;;23.90;60.20;;;;;;5066111;28;20649;-67
2021/08/22 01:35:45;;;;;;;0.00;0.00;;;23.80;60.50;;;;;;5069504;28;20244;-67
2021/08/22 01:38:14;;;;;;;0.00;0.00;;;23.80;60.40;;;;;;5067799;28;20210;-67
2021/08/22 01:40:43;;;;;;;0.10;0.10;;;23.70;60.50;;;;;;5073520;28;20210;-67
2021/08/22 01:43:12;;;;;;;0.00;0.00;;;23.70;60.70;;;;;;5068242;28;20574;-67
2021/08/22 01:45:40;;;;;;;0.00;0.00;;;23.70;60.70;;;;;;5068839;28;20295;-67
2021/08/22 01:48:07;;;;;;;0.00;0.00;;;23.70;60.70;;;;;;5070331;28;20241;-67
2021/08/22 01:50:35;;;;;;;0.10;0.10;;;23.60;60.70;;;;;;5067487;28;20205;-67
2021/08/22 01:53:05;;;;;;;0.00;0.00;;;23.60;60.90;;;;;;5076720;28;20233;-67
2021/08/22 01:55:33;;;;;;;0.00;0.00;;;23.60;60.90;;;;;;5066634;28;20242;-67
2021/08/22 01:58:00;;;;;;;0.10;0.10;;;23.60;61.10;;;;;;5066706;28;20210;-67
2021/08/22 02:00:27;;;;;;;0.00;0.00;;;23.60;61.50;;;;;;5068838;28;20217;-67
2021/08/22 02:03:10;;;;;;;0.13;0.13;;;23.50;61.50;;;;;;5067096;28;20217;-67
2021/08/22 02:05:38;;;;;;;0.10;0.10;;;23.50;61.70;;;;;;5066523;28;20206;-67
2021/08/22 02:08:14;;;;;;;0.40;0.40;;;23.50;61.70;;;;;;5073177;28;20211;-67
2021/08/22 02:10:58;;;;;;;0.00;0.00;;;23.50;61.90;;;;;;5064947;28;20214;-67
2021/08/22 02:13:34;;;;;;;0.00;0.00;;;23.40;62.10;;;;;;5060402;28;20221;-67
2021/08/22 02:16:04;;;;;;;0.10;0.10;;;23.40;62.20;;;;;;5060067;28;20648;-67
2021/08/22 02:18:34;;;;;;;0.00;0.00;;;23.40;62.30;;;;;;5067633;28;20239;-67
2021/08/22 02:21:02;;;;;;;0.20;0.20;;;23.30;62.50;;;;;;5068043;28;20220;-67
2021/08/22 02:23:29;;;;;;;0.00;0.00;;;23.30;62.60;;;;;;5064576;28;20301;-67
2021/08/22 02:25:56;;;;;;;0.10;0.10;;;23.20;62.70;;;;;;5065015;28;20558;-67
2021/08/22 02:28:24;;;;;;;0.10;0.10;;;23.20;62.80;;;;;;5066561;28;20283;-67
2021/08/22 02:30:52;;;;;;;0.00;0.00;;;23.20;62.90;;;;;;5065621;28;20206;-67
2021/08/22 02:33:19;;;;;;;0.10;0.10;;;23.20;63.00;;;;;;5064703;28;20304;-67
2021/08/22 02:35:46;;;;;;;0.20;0.20;;;23.10;63.10;;;;;;5067086;28;20210;-67
2021/08/22 02:38:13;;;;;;;0.00;0.00;;;23.10;63.30;;;;;;5067480;28;20205;-67
2021/08/22 02:40:40;;;;;;;0.20;0.20;;;23.10;63.50;;;;;;5065166;28;20284;-67
2021/08/22 02:43:07;;;;;;;0.00;0.00;;;23.10;63.60;;;;;;5063562;28;20296;-67
2021/08/22 02:45:34;;;;;;;0.00;0.00;;;23.10;63.80;;;;;;5065150;28;20214;-67
2021/08/22 02:48:01;;;;;;;0.00;0.00;;;23.00;63.90;;;;;;5065586;28;20209;-67
2021/08/22 02:50:29;;;;;;;0.10;0.10;;;23.00;64.00;;;;;;5062922;28;20668;-67
2021/08/22 02:52:56;;;;;;;0.10;0.10;;;23.00;64.20;;;;;;5065212;28;20271;-67
2021/08/22 02:55:24;;;;;;;0.30;0.30;;;22.90;64.30;;;;;;5065196;28;20658;-67
2021/08/22 02:57:51;;;;;;;0.00;0.00;;;22.90;64.50;;;;;;5062610;28;20218;-67
2021/08/22 03:00:18;;;;;;;0.00;0.00;;;22.80;64.60;;;;;;5069525;28;20556;-67
2021/08/22 03:02:45;;;;;;;0.10;0.10;;;22.80;64.70;;;;;;5067491;28;20603;-66
2021/08/22 03:05:13;;;;;;;0.00;0.00;;;22.80;64.70;;;;;;5062354;28;20309;-66
2021/08/22 03:07:39;;;;;;;0.00;0.00;;;22.80;64.80;;;;;;5067306;28;20230;-67
2021/08/22 03:10:07;;;;;;;0.00;0.00;;;22.80;64.80;;;;;;5065837;28;20217;-67
2021/08/22 03:12:35;;;;;;;0.00;0.00;;;22.80;65.00;;;;;;5062161;28;20218;-67
2021/08/22 03:15:04;;;;;;;0.00;0.00;;;22.80;65.10;;;;;;5064656;28;20266;-67
2021/08/22 03:17:31;;;;;;;0.00;0.00;;;22.80;65.50;;;;;;5065413;28;20221;-67
2021/08/22 03:20:02;;;;;;;0.10;0.10;;;22.70;65.90;;;;;;5071545;28;20226;-67
2021/08/22 03:22:29;;;;;;;0.07;0.07;;;22.60;65.90;;;;;;5062739;28;20217;-67
2021/08/22 03:24:57;;;;;;;0.00;0.00;;;22.60;66.10;;;;;;5062136;28;20214;-67
2021/08/22 03:27:24;;;;;;;0.00;0.00;;;22.50;66.20;;;;;;5063942;28;20234;-67
2021/08/22 03:29:51;;;;;;;0.10;0.10;;;22.50;66.30;;;;;;5070482;28;20207;-67
2021/08/22 03:32:18;;;;;;;0.10;0.10;;;22.50;66.30;;;;;;5066020;28;20643;-67
2021/08/22 03:34:45;;;;;;;0.00;0.00;;;22.50;66.30;;;;;;5063263;28;20275;-67
2021/08/22 03:37:12;;;;;;;0.10;0.10;;;22.50;66.20;;;;;;5066741;28;20214;-67
2021/08/22 03:39:40;;;;;;;0.00;0.00;;;22.50;66.20;;;;;;5063169;28;20226;-67
2021/08/22 03:42:06;;;;;;;0.00;0.00;;;22.40;66.20;;;;;;5063573;28;20224;-67
2021/08/22 03:44:33;;;;;;;0.10;0.10;;;22.40;66.40;;;;;;5064967;28;20591;-67
2021/08/22 03:47:00;;;;;;;0.00;0.00;;;22.30;65.90;;;;;;5062513;28;20291;-67
2021/08/22 03:49:28;;;;;;;0.10;0.10;;;22.20;65.90;;;;;;5063382;28;20617;-67
2021/08/22 03:51:54;;;;;;;0.00;0.00;;;22.20;66.10;;;;;;5064456;28;20563;-66
2021/08/22 03:54:21;;;;;;;0.00;0.00;;;22.20;66.10;;;;;;5062672;28;20211;-66
2021/08/22 03:56:48;;;;;;;0.40;0.40;;;22.10;66.20;;;;;;5062604;28;20287;-66
2021/08/22 03:59:15;;;;;;;0.00;0.00;;;22.10;66.20;;;;;;5065320;28;20278;-66
2021/08/22 04:01:42;;;;;;;0.10;0.10;;;22.00;66.20;;;;;;5062089;28;20305;-66
2021/08/22 04:04:10;;;;;;;0.83;0.83;;;22.00;66.40;;;;;;5061680;28;20291;-66
2021/08/22 04:06:38;;;;;;;0.10;0.10;;;21.90;66.40;;;;;;5065096;28;20322;-66
2021/08/22 04:09:07;;;;;;;0.10;0.10;;;21.90;66.50;;;;;;5063906;28;20267;-66
2021/08/22 04:11:34;;;;;;;0.03;0.03;;;21.90;66.50;;;;;;5064092;28;20291;-66
2021/08/22 04:14:02;;;;;;;0.00;0.00;;;21.90;66.50;;;;;;5062006;28;20441;-66
2021/08/22 04:16:29;;;;;;;0.00;0.00;;;21.90;66.50;;;;;;5062601;28;20224;-66
2021/08/22 04:18:56;;;;;;;0.10;0.10;;;21.90;66.60;;;;;;5064370;28;20681;-66
2021/08/22 04:21:23;;;;;;;0.00;0.00;;;21.90;66.80;;;;;;5060137;28;20587;-66
2021/08/22 04:23:51;;;;;;;0.00;0.00;;;21.90;66.80;;;;;;5063028;28;20295;-66
2021/08/22 04:26:18;;;;;;;0.00;0.00;;;21.90;66.80;;;;;;5060179;28;20268;-66
2021/08/22 04:28:45;;;;;;;0.00;0.00;;;21.90;66.80;;;;;;5065935;28;20218;-66
2021/08/22 04:31:12;;;;;;;0.10;0.10;;;21.90;66.70;;;;;;5064778;28;20218;-66
2021/08/22 04:33:39;;;;;;;0.00;0.00;;;22.00;66.70;;;;;;5061448;28;20246;-66
2021/08/22 04:36:06;;;;;;;0.00;0.00;;;21.90;66.60;;;;;;5063417;28;20720;-66
2021/08/22 04:38:35;;;;;;;0.00;0.00;;;22.00;66.60;;;;;;5073057;28;20214;-66
2021/08/22 04:41:02;;;;;;;0.00;0.00;;;22.00;66.70;;;;;;5061147;28;20533;-66
2021/08/22 04:43:29;;;;;;;0.07;0.07;;;22.00;66.80;;;;;;5063336;28;20206;-66
2021/08/22 04:45:56;;;;;;;0.10;0.10;;;22.00;67.00;;;;;;5062255;28;20214;-66
2021/08/22 04:48:23;;;;;;;0.00;0.00;;;22.00;67.00;;;;;;5060808;28;20288;-66
2021/08/22 04:50:50;;;;;;;0.00;0.00;;;22.00;67.00;;;;;;5062704;28;20241;-66
2021/08/22 04:53:18;;;;;;;0.10;0.10;;;22.00;67.00;;;;;;5063457;28;20271;-66
2021/08/22 04:55:44;;;;;;;0.10;0.10;;;22.10;67.30;;;;;;5061813;28;20214;-66
2021/08/22 04:58:11;;;;;;;0.10;0.10;;;22.00;67.40;;;;;;5063040;28;20247;-66
2021/08/22 05:00:39;;;;;;;0.20;0.20;;;22.00;67.30;;;;;;5062527;28;20310;-66
2021/08/22 05:03:06;;;;;;;0.20;0.20;;;22.00;67.30;;;;;;5062214;28;20659;-66
2021/08/22 05:05:33;;;;;;;0.00;0.00;;;22.10;67.30;;;;;;5067421;28;20452;-66
2021/08/22 05:08:00;;;;;;;0.00;0.00;;;22.20;67.20;;;;;;5047596;28;20233;-66
2021/08/22 05:10:27;;;;;;;0.00;0.00;;;22.20;67.00;;;;;;5064103;28;20425;-66
2021/08/22 05:12:54;;;;;;;0.10;0.10;;;22.30;66.90;;;;;;5068649;28;20201;-66
2021/08/22 05:15:22;;;;;;;0.00;0.00;;;22.40;66.80;;;;;;5065295;28;20205;-66
2021/08/22 05:17:49;;;;;;;0.00;0.00;;;22.50;66.70;;;;;;5064893;28;20667;-66
2021/08/22 05:20:16;;;;;;;0.10;0.10;;;22.60;66.70;;;;;;5064666;28;20272;-66
2021/08/22 05:22:43;;;;;;;0.03;0.03;;;22.70;66.60;;;;;;5071829;28;20636;-66
2021/08/22 05:25:10;;;;;;;0.10;0.10;;;22.90;66.40;;;;;;5068606;28;20236;-67
2021/08/22 05:27:38;;;;;;;0.40;0.40;;;23.00;66.10;;;;;;5066143;28;20229;-67
2021/08/22 05:30:05;;;;;;;0.10;0.10;;;23.30;65.90;;;;;;5067750;28;20201;-67
2021/08/22 05:32:32;;;;;;;0.00;0.00;;;23.70;65.20;;;;;;5061164;28;20247;-67
2021/08/22 05:35:00;;;;;;;0.10;0.10;;;24.00;64.20;;;;;;5061382;28;20225;-67
2021/08/22 05:37:27;;;;;;;0.00;0.00;;;24.40;63.40;;;;;;5062804;28;20225;-67
2021/08/22 05:39:54;;;;;;;0.00;0.00;;;24.70;62.60;;;;;;5071066;28;20656;-67
2021/08/22 05:42:21;;;;;;;3.20;1.80;;;24.90;62.10;;;;;;5061645;28;20305;-67
2021/08/22 05:44:48;;;;;;;0.10;0.10;;;25.00;61.80;;;;;;5064186;28;20240;-67
2021/08/22 05:47:21;;;;;;;0.00;0.00;;;25.00;61.70;;;;;;5061281;28;20288;-67
2021/08/22 05:49:49;;;;;;;0.10;0.10;;;25.00;61.70;;;;;;5060844;28;20226;-67
2021/08/22 05:52:16;;;;;;;0.10;0.10;;;25.00;62.10;;;;;;5061990;28;20209;-67
2021/08/22 05:54:43;;;;;;;0.00;0.00;;;25.00;62.20;;;;;;5071331;28;20221;-67
2021/08/22 05:57:10;;;;;;;0.00;0.00;;;25.10;62.30;;;;;;5060870;28;20593;-67
2021/08/22 05:59:39;;;;;;;0.00;0.00;;;25.10;62.10;;;;;;5067126;28;20214;-67
2021/08/22 06:02:07;;;;;;;0.40;0.40;;;25.20;61.80;;;;;;5066253;28;20205;-67
2021/08/22 06:04:34;;;;;;;0.00;0.00;;;25.40;61.70;;;;;;5063213;28;20583;-67
2021/08/22 06:07:01;;;;;;;0.10;0.10;;;25.50;61.40;;;;;;5065404;28;20237;-67
2021/08/22 06:09:30;;;;;;;0.20;0.20;;;25.60;61.00;;;;;;5066674;28;20209;-67
2021/08/22 06:11:57;;;;;;;0.00;0.00;;;25.80;60.60;;;;;;5067451;28;20721;-67
2021/08/22 06:14:24;;;;;;;0.10;0.10;;;25.90;60.20;;;;;;5065800;28;20217;-67
2021/08/22 06:16:50;;;;;;;0.07;0.07;;;26.10;59.80;;;;;;5065120;28;20233;-67
2021/08/22 06:19:18;;;;;;;0.00;0.00;;;26.30;59.40;;;;;;5055559;28;20696;-67
2021/08/22 06:21:45;;;;;;;0.10;0.10;;;26.40;59.00;;;;;;5060858;28;20317;-67
2021/08/22 06:24:12;;;;;;;0.00;0.00;;;26.60;58.60;;;;;;5067653;28;20248;-67
2021/08/22 06:26:39;;;;;;;0.00;0.00;;;26.70;58.30;;;;;;5064195;28;20279;-67
2021/08/22 06:29:06;;;;;;;0.00;0.00;;;26.90;58.00;;;;;;5067572;28;20206;-67
2021/08/22 06:31:33;;;;;;;0.03;0.03;;;27.10;57.70;;;;;;5067962;28;20210;-67
2021/08/22 06:34:01;;;;;;;0.00;0.00;;;27.20;57.40;;;;;;5064482;28;20269;-67
2021/08/22 06:36:28;;;;;;;0.20;0.20;;;27.30;57.00;;;;;;5063404;28;20210;-67
2021/08/22 06:38:54;;;;;;;0.30;0.30;;;27.50;56.80;;;;;;5066598;28;20221;-67
2021/08/22 06:41:21;;;;;;;3.80;0.43;;;27.70;56.50;;;;;;5065568;28;20218;-67
2021/08/22 06:43:48;;;;;;;0.00;0.00;;;27.90;55.80;;;;;;5064564;28;20222;-67
2021/08/22 06:46:15;;;;;;;0.00;0.00;;;28.10;55.30;;;;;;5066788;28;20725;-67
2021/08/22 06:48:43;;;;;;;0.20;0.20;;;28.20;55.00;;;;;;5064132;28;20575;-67
2021/08/22 06:51:10;;;;;;;0.63;0.63;;;28.40;53.90;;;;;;5064794;28;20311;-67
2021/08/22 06:53:37;;;;;;;0.53;0.53;;;28.50;52.90;;;;;;5067029;28;20296;-67
2021/08/22 06:56:04;;;;;;;0.00;0.00;;;28.50;52.80;;;;;;5064466;28;20218;-67
2021/08/22 06:58:31;;;;;;;0.30;0.30;;;28.40;53.10;;;;;;5064841;28;20291;-67
2021/08/22 07:00:58;;;;;;;0.10;0.10;;;28.50;53.20;;;;;;5068723;28;20221;-67
2021/08/22 07:03:26;;;;;;;0.20;0.20;;;28.70;52.80;;;;;;5072340;28;20219;-67
2021/08/22 07:05:53;;;;;;;0.10;0.10;;;28.80;52.10;;;;;;5066786;28;20214;-68
2021/08/22 07:08:20;;;;;;;0.00;0.00;;;28.80;52.10;;;;;;5065302;28;20610;-68
2021/08/22 07:10:47;;;;;;;0.40;0.40;;;28.70;52.10;;;;;;5064115;28;20213;-68
2021/08/22 07:13:15;;;;;;;0.03;0.03;;;28.50;52.70;;;;;;5066874;28;20210;-68
2021/08/22 07:15:42;;;;;;;0.00;0.00;;;28.30;53.20;;;;;;5062076;28;20219;-67
2021/08/22 07:18:10;;;;;;;0.47;0.47;;;28.30;53.30;;;;;;5065143;28;20217;-67
2021/08/22 07:20:37;;;;;;;0.43;0.43;;;28.30;53.10;;;;;;5072840;28;20216;-67
2021/08/22 07:23:04;;;;;;;0.10;0.10;;;28.30;53.00;;;;;;5063374;28;20229;-67
2021/08/22 07:25:32;;;;;;;0.10;0.10;;;28.50;53.00;;;;;;5063887;28;20609;-67
2021/08/22 07:27:59;;;;;;;0.23;0.13;;;28.80;52.80;;;;;;5065537;28;20246;-67
2021/08/22 07:30:26;;;;;;;0.10;0.10;;;28.90;51.90;;;;;;5066750;28;20213;-67
2021/08/22 07:32:55;;;;;;;0.00;0.00;;;29.00;51.50;;;;;;5063585;28;20246;-67
2021/08/22 07:35:22;;;;;;;0.10;0.10;;;29.10;51.60;;;;;;5064535;28;20221;-67
2021/08/22 07:37:49;;;;;;;0.00;0.00;;;29.30;51.40;;;;;;5063042;28;20268;-67
2021/08/22 07:40:16;;;;;;;1.60;1.10;;;29.50;50.80;;;;;;5069866;28;20221;-67
2021/08/22 07:42:43;;;;;;;0.00;0.00;;;29.70;50.50;;;;;;5067052;28;20267;-67
2021/08/22 07:45:11;;;;;;;0.03;0.03;;;30.00;50.60;;;;;;5071506;28;20221;-67
2021/08/22 07:47:38;;;;;;;0.10;0.10;;;30.30;50.10;;;;;;5062849;28;20235;-67
2021/08/22 07:50:05;;;;;;;0.00;0.00;;;30.60;49.60;;;;;;5064466;28;20560;-67
2021/08/22 07:52:33;;;;;;;0.00;0.00;;;30.80;48.90;;;;;;5063125;28;20219;-67
2021/08/22 07:55:00;;;;;;;0.10;0.10;;;30.60;49.10;;;;;;5063404;28;20210;-67
2021/08/22 07:57:27;;;;;;;0.37;0.37;;;30.50;49.50;;;;;;5061946;28;20222;-67
2021/08/22 07:59:54;;;;;;;0.10;0.10;;;30.40;49.60;;;;;;5063304;28;20594;-67
2021/08/22 08:02:21;;;;;;;1.03;1.03;;;30.50;49.50;;;;;;5064232;28;20220;-67
2021/08/22 08:04:51;;;;;;;0.10;0.10;;;30.70;49.20;;;;;;5060459;28;20268;-67
2021/08/22 08:07:18;;;;;;;0.00;0.00;;;30.90;49.00;;;;;;5063998;28;20598;-67
2021/08/22 08:09:46;;;;;;;0.20;0.20;;;30.90;49.00;;;;;;5071831;28;20220;-67
2021/08/22 08:12:13;;;;;;;0.00;0.00;;;31.10;48.20;;;;;;5062903;28;20268;-67
2021/08/22 08:14:41;;;;;;;0.10;0.10;;;31.10;47.60;;;;;;5062102;28;20560;-67
2021/08/22 08:17:08;;;;;;;0.53;0.40;;;31.00;47.90;;;;;;5063785;28;20274;-67
2021/08/22 08:19:35;;;;;;;0.10;0.10;;;31.00;48.30;;;;;;5070312;28;20252;-67
2021/08/22 08:22:02;;;;;;;0.00;0.00;;;31.30;48.00;;;;;;5061513;28;20206;-67
2021/08/22 08:24:29;;;;;;;0.00;0.00;;;31.50;47.30;;;;;;5070630;28;20267;-67
2021/08/22 08:26:56;;;;;;;0.00;0.00;;;31.40;46.70;;;;;;5065123;28;20617;-67
2021/08/22 08:29:23;;;;;;;0.20;0.20;;;31.10;46.90;;;;;;5067845;28;20248;-67
2021/08/22 08:31:50;;;;;;;0.23;0.23;;;31.00;47.00;;;;;;5063622;28;20218;-67
2021/08/22 08:34:17;;;;;;;0.00;0.00;;;30.90;47.20;;;;;;5061752;28;20303;-67
2021/08/22 08:36:44;;;;;;;0.00;0.00;;;30.80;47.60;;;;;;5059695;28;20275;-67
2021/08/22 08:39:11;;;;;;;0.00;0.00;;;30.80;47.70;;;;;;5062868;28;20532;-67
2021/08/22 08:41:38;;;;;;;0.10;0.10;;;30.70;47.90;;;;;;5061281;28;20218;-67
2021/08/22 08:44:05;;;;;;;0.10;0.10;;;30.70;48.10;;;;;;5060737;28;20652;-67
2021/08/22 08:46:46;;;;;;;0.10;0.10;;;30.70;48.30;;;;;;5062918;28;20224;-67
2021/08/22 08:49:26;;;;;;;0.10;0.10;;;30.70;48.10;;;;;;5063846;28;20233;-67
2021/08/22 08:52:08;;;;;;;7.57;1.90;;;30.80;48.30;;;;;;5063554;28;20214;-67
2021/08/22 08:55:03;;;;;;;2.10;1.00;;;31.10;47.90;;;;;;5062894;28;20700;-68
2021/08/22 08:57:34;;;;;;;0.10;0.10;;;31.50;47.60;;;;;;5062991;28;20599;-68
2021/08/22 09:00:01;;;;;;;0.10;0.10;;;31.90;46.90;;;;;;5062135;28;20217;-68
2021/08/22 09:02:28;;;;;;;1.07;0.83;;;32.30;46.20;;;;;;5064252;28;20283;-68
2021/08/22 09:05:11;;;;;;;0.00;0.00;;;32.50;45.70;;;;;;5063564;28;20762;-68
2021/08/22 09:08:12;;;;;;;0.03;0.03;;;32.70;45.60;;;;;;5063977;28;20238;-68
2021/08/22 09:11:15;;;;;;;0.10;0.10;;;32.70;45.00;;;;;;5061992;28;20205;-68
2021/08/22 09:14:10;;;;;;;0.10;0.10;;;32.80;44.50;;;;;;5076772;28;20275;-68
2021/08/22 09:17:15;;;;;;;0.00;0.00;;;32.90;44.00;;;;;;5062143;28;20678;-68
2021/08/22 09:20:19;;;;;;;0.10;0.10;;;33.20;44.10;;;;;;5077141;28;20218;-68
2021/08/22 09:23:24;;;;;;;0.10;0.10;;;33.40;43.60;;;;;;5062796;28;20214;-68
2021/08/22 09:26:12;;;;;;;0.10;0.10;;;33.70;43.10;;;;;;5021657;28;20214;-68
2021/08/22 09:29:17;;;;;;;1.60;1.30;;;34.00;42.90;;;;;;5062122;28;20706;-68
2021/08/22 09:32:21;;;;;;;0.00;0.00;;;34.20;42.30;;;;;;5064837;28;20209;-68
2021/08/22 09:35:22;;;;;;;0.03;0.03;;;34.50;41.90;;;;;;5076574;28;20220;-68
2021/08/22 09:38:28;;;;;;;2.80;1.40;;;34.60;41.50;;;;;;5062577;28;20213;-68
2021/08/22 09:41:32;;;;;;;0.10;0.10;;;34.80;41.30;;;;;;5061546;28;20690;-68
2021/08/22 09:44:36;;;;;;;0.00;0.00;;;35.00;41.10;;;;;;5060570;28;20210;-68
2021/08/22 09:47:47;;;;;;;0.40;0.40;;;35.30;40.60;;;;;;5062729;28;20232;-68
2021/08/22 09:50:52;;;;;;;0.07;0.07;;;35.60;40.60;;;;;;5053247;28;20574;-68
2021/08/22 09:54:03;;;;;;;0.20;0.20;;;35.70;40.10;;;;;;5061895;28;20296;-68
2021/08/22 09:56:48;;;;;;;0.40;0.40;;;35.80;39.50;;;;;;5061311;28;20340;-68
2021/08/22 09:59:30;;;;;;;0.00;0.00;;;35.70;39.00;;;;;;5077060;28;20210;-68
2021/08/22 10:02:31;;;;;;;0.10;0.10;;;35.50;38.50;;;;;;5062279;28;20261;-68
2021/08/22 10:05:20;;;;;;;0.20;0.20;;;35.20;38.60;;;;;;5062519;28;20598;-68
2021/08/22 10:07:50;;;;;;;0.07;0.07;;;35.20;39.10;;;;;;5059395;28;20616;-68
2021/08/22 10:10:34;;;;;;;0.37;0.37;;;35.10;39.10;;;;;;5067362;28;20218;-68
2021/08/22 10:13:01;;;;;;;0.00;0.00;;;35.10;38.70;;;;;;5067973;28;20304;-68
2021/08/22 10:15:29;;;;;;;0.10;0.10;;;35.10;39.10;;;;;;5059531;28;20271;-68
2021/08/22 10:17:56;;;;;;;0.00;0.00;;;35.20;39.30;;;;;;5061972;28;20217;-68
2021/08/22 10:20:40;;;;;;;0.23;0.23;;;35.30;39.40;;;;;;5061485;28;20266;-68
2021/08/22 10:23:42;;;;;;;0.20;0.20;;;35.30;39.50;;;;;;5061202;28;20724;-68
2021/08/22 10:26:10;;;;;;;0.87;0.80;;;35.50;39.40;;;;;;5059358;28;20536;-68
2021/08/22 10:28:48;;;;;;;0.27;0.27;;;35.80;38.40;;;;;;5060524;28;20574;-68
2021/08/22 10:31:50;;;;;;;0.20;0.20;;;35.80;38.80;;;;;;5060290;28;20210;-68
2021/08/22 10:34:17;;;;;;;0.10;0.10;;;35.70;38.20;;;;;;5062119;28;20245;-68
2021/08/22 10:36:45;;;;;;;0.00;0.00;;;35.60;38.50;;;;;;5059944;28;20611;-68
2021/08/22 10:41:54;;;;;;;0.00;0.00;;;35.80;38.80;;;;;;5060232;28;20214;-68
2021/08/22 10:44:34;;;;;;;0.00;0.00;;;36.00;38.70;;;;;;5060958;28;20226;-68
2021/08/22 10:47:12;;;;;;;0.03;0.03;;;36.30;38.50;;;;;;5064174;28;20288;-68
2021/08/22 10:49:53;;;;;;;0.00;0.00;;;36.50;38.30;;;;;;5064346;28;20237;-68
2021/08/22 10:52:27;;;;;;;0.00;0.00;;;36.60;37.90;;;;;;5063154;28;20210;-68
2021/08/22 10:55:12;;;;;;;0.30;0.30;;;36.70;37.80;;;;;;5066894;28;20628;-68
2021/08/22 10:57:42;;;;;;;0.30;0.30;;;36.70;37.10;;;;;;5064213;28;20198;-68
2021/08/22 11:00:36;;;;;;;0.10;0.10;;;36.70;37.10;;;;;;5064565;28;20677;-71
2021/08/22 11:03:04;;;;;;;0.97;0.97;;;36.80;36.90;;;;;;5066274;28;20414;-71
2021/08/22 11:05:34;;;;;;;0.30;0.27;;;36.90;36.10;;;;;;5065478;28;20224;-71
2021/08/22 11:08:21;;;;;;;0.00;0.00;;;36.80;36.10;;;;;;5064046;28;20249;-72
2021/08/22 11:10:58;;;;;;;0.00;0.00;;;36.90;36.60;;;;;;5063902;28;20218;-72
2021/08/22 11:13:27;;;;;;;0.20;0.20;;;36.90;36.40;;;;;;5063174;28;20339;-71
2021/08/22 11:15:54;;;;;;;0.00;0.00;;;36.90;35.60;;;;;;5063326;28;20301;-72
2021/08/22 11:18:21;;;;;;;0.10;0.10;;;36.70;35.40;;;;;;5066259;28;20217;-72
2021/08/22 11:20:49;;;;;;;0.00;0.00;;;36.60;35.80;;;;;;5063319;28;20547;-72
2021/08/22 11:23:17;;;;;;;0.00;0.00;;;36.70;36.00;;;;;;5072754;28;20214;-72
2021/08/22 11:25:46;;;;;;;0.10;0.10;;;36.90;35.80;;;;;;5064511;28;20846;-72
2021/08/22 11:28:15;;;;;;;0.00;0.00;;;37.00;35.50;;;;;;5065519;28;20290;-72
2021/08/22 11:30:43;;;;;;;0.10;0.10;;;37.20;35.60;;;;;;5064057;28;20445;-72
2021/08/22 11:33:11;;;;;;;0.10;0.10;;;37.20;35.50;;;;;;5064598;28;20246;-71
2021/08/22 11:35:44;;;;;;;0.00;0.00;;;37.30;35.40;;;;;;5072188;28;20209;-71
2021/08/22 11:38:13;;;;;;;0.00;0.00;;;37.40;35.10;;;;;;5062776;28;20641;-71
2021/08/22 11:40:42;;;;;;;0.00;0.00;;;37.30;34.90;;;;;;5065664;28;20224;-72
2021/08/22 11:43:11;;;;;;;0.00;0.00;;;37.20;34.70;;;;;;5062071;28;20214;-72
2021/08/22 11:45:42;;;;;;;0.00;0.00;;;37.20;34.20;;;;;;5062513;28;20236;-72
2021/08/22 11:48:18;;;;;;;0.00;0.00;;;37.00;34.30;;;;;;5064862;28;20210;-72
2021/08/22 11:50:46;;;;;;;0.00;0.00;;;36.90;34.70;;;;;;5063783;28;20662;-72
2021/08/22 11:53:16;;;;;;;0.00;0.00;;;36.90;34.90;;;;;;5069523;28;20207;-72
2021/08/22 11:55:44;;;;;;;0.10;0.10;;;37.00;34.80;;;;;;5066710;28;20221;-72
2021/08/22 11:58:21;;;;;;;0.20;0.20;;;37.00;34.90;;;;;;5064495;28;20206;-72
2021/08/22 12:00:51;;;;;;;0.20;0.20;;;37.10;34.30;;;;;;5062980;28;20315;-72
2021/08/22 12:03:22;;;;;;;0.10;0.10;;;37.10;34.20;;;;;;5065088;28;20566;-72
2021/08/22 12:06:01;;;;;;;0.90;0.53;;;37.20;34.10;;;;;;5070867;28;20843;-72
2021/08/22 12:08:30;;;;;;;0.00;0.00;;;37.20;33.00;;;;;;5061851;28;20237;-72
2021/08/22 12:11:16;;;;;;;0.10;0.10;;;37.10;33.40;;;;;;5062255;28;20218;-72
2021/08/22 12:13:45;;;;;;;0.00;0.00;;;37.20;33.90;;;;;;5063694;28;20209;-72
2021/08/22 12:16:33;;;;;;;0.10;0.10;;;37.20;33.30;;;;;;5061237;28;20564;-72
2021/08/22 12:19:20;;;;;;;0.07;0.07;;;37.10;31.50;;;;;;5060921;28;20220;-72
2021/08/22 12:21:49;;;;;;;0.00;0.00;;;36.90;32.10;;;;;;5060882;28;20271;-72
2021/08/22 12:24:21;;;;;;;0.00;0.00;;;36.80;32.10;;;;;;5064336;28;20295;-72
2021/08/22 12:26:54;;;;;;;0.00;0.00;;;36.80;31.80;;;;;;5061552;28;20921;-72
2021/08/22 12:29:31;;;;;;;0.30;0.30;;;36.70;32.20;;;;;;5070588;28;20562;-72
2021/08/22 12:32:09;;;;;;;0.00;0.00;;;36.80;32.60;;;;;;5061403;28;20589;-72
2021/08/22 12:34:36;;;;;;;0.30;0.30;;;36.80;32.90;;;;;;5064085;28;20611;-72
2021/08/22 12:37:08;;;;;;;0.00;0.00;;;36.70;32.40;;;;;;5062288;28;20307;-72
2021/08/22 12:39:35;;;;;;;0.00;0.00;;;36.60;32.60;;;;;;5060881;28;20218;-72
2021/08/22 12:42:03;;;;;;;0.20;0.20;;;36.60;32.70;;;;;;5062506;28;20213;-71
2021/08/22 12:44:31;;;;;;;0.10;0.10;;;36.50;33.00;;;;;;5063138;28;20217;-72
2021/08/22 12:47:03;;;;;;;0.00;0.00;;;36.50;33.10;;;;;;5060560;28;20217;-71
2021/08/22 12:49:34;;;;;;;0.10;0.10;;;36.40;33.10;;;;;;5062039;28;20234;-71
2021/08/22 12:52:04;;;;;;;0.13;0.13;;;36.30;32.90;;;;;;5063971;28;20213;-72
2021/08/22 12:54:33;;;;;;;0.00;0.00;;;36.20;33.30;;;;;;5064307;28;20214;-72
2021/08/22 12:57:00;;;;;;;0.57;0.57;;;36.20;33.60;;;;;;5063372;28;20256;-72
2021/08/22 12:59:27;;;;;;;0.00;0.00;;;36.30;33.50;;;;;;5061514;28;20564;-72
2021/08/22 13:01:56;;;;;;;0.00;0.00;;;36.50;33.50;;;;;;5061648;28;20291;-71
2021/08/22 13:04:25;;;;;;;0.10;0.10;;;36.60;33.40;;;;;;5063942;28;20228;-71
2021/08/22 13:06:55;;;;;;;0.30;0.30;;;36.80;33.40;;;;;;5068754;28;20222;-72
2021/08/22 13:09:24;;;;;;;0.10;0.10;;;36.90;32.60;;;;;;5060526;28;20317;-72
2021/08/22 13:11:52;;;;;;;0.00;0.00;;;37.00;32.40;;;;;;5061226;28;20218;-72